gordon.dewis.ca - Random musings from Gordon

Subscribe

Archive for January, 2017

Brace yourself: This is going to suck

January 10, 2017 @ 13:10 By: gordon Category: Weather

I just looked at the radar…


And the aviation forecast:

TAF CYOW 101738Z 1018/1118 12010KT P6SM -SN OVC040 TEMPO 1018/1019 2SM -SN OVC030
FM101900 13012G22KT 3SM -SN OVC030 TEMPO 1019/1020 1SM -SN VV007
PROB40 1019/1020 3/4SM -SN
FM102000 13012G22KT 1/2SM SN VV005 TEMPO 1020/1022 1SM -SN
PROB30 1022/1103 1/4SM +SN VV003
FM110300 14018G28KT 3/4SM -SN BLSN VV007 TEMPO 1103/1107 2SM -SNPL OVC012
PROB30 1104/1107 3SM -FZRA BR OVC015
FM110700 17020G30KT 3SM -SNRA OVC012
FM111100 22020G35KT P6SM BKN030
FM111400 23015G25KT P6SM FEW030
RMK NXT FCST BY 102100Z=

The likelihood that this is going to suck is very high.

Happy New Year!

January 01, 2017 @ 00:00 By: gordon Category: Current affairs

Welcome to 2017! I hope everyone has a safe, happy and prosperous new year! Champagne flutes (2017)